createdAt,value
2022-09-02T00:01:00.094Z,16.56
2022-09-02T00:03:33.111Z,16.57
2022-09-02T00:05:59.487Z,16.63
2022-09-02T00:08:25.520Z,16.54
2022-09-02T00:10:51.907Z,16.47
2022-09-02T00:13:19.899Z,16.34
2022-09-02T00:15:47.930Z,16.47
2022-09-02T00:18:15.780Z,16.46
2022-09-02T00:20:46.465Z,16.46
2022-09-02T00:23:12.660Z,16.32
2022-09-02T00:25:39.592Z,16.54
2022-09-02T00:28:06.518Z,16.50
2022-09-02T00:30:34.900Z,16.47
2022-09-02T00:33:00.986Z,16.41
2022-09-02T00:35:27.182Z,16.41
2022-09-02T00:37:53.251Z,16.50
2022-09-02T00:40:19.247Z,16.40
2022-09-02T00:42:45.134Z,16.43
2022-09-02T00:45:11.224Z,16.42
2022-09-02T00:47:37.342Z,16.49
2022-09-02T00:50:09.145Z,16.49
2022-09-02T00:52:45.626Z,16.37
2022-09-02T00:55:18.815Z,16.44
2022-09-02T00:58:00.146Z,16.49
2022-09-02T01:00:34.520Z,16.41
2022-09-02T01:03:05.407Z,16.41
2022-09-02T01:05:35.839Z,16.39
2022-09-02T01:08:06.590Z,16.35
2022-09-02T01:10:34.085Z,16.33
2022-09-02T01:13:06.324Z,16.26
2022-09-02T01:15:36.601Z,16.35
2022-09-02T01:18:07.010Z,16.57
2022-09-02T01:20:35.842Z,16.42
2022-09-02T01:23:01.870Z,16.24
2022-09-02T01:25:31.081Z,16.27
2022-09-02T01:28:07.740Z,16.34
2022-09-02T01:30:35.346Z,16.24
2022-09-02T01:33:01.528Z,16.21
2022-09-02T01:35:28.765Z,16.05
2022-09-02T01:37:57.300Z,16.10
2022-09-02T01:40:24.838Z,16.17
2022-09-02T01:42:55.317Z,16.20
2022-09-02T01:45:21.992Z,16.09
2022-09-02T01:47:48.025Z,16.19
2022-09-02T01:50:14.035Z,16.07
2022-09-02T01:52:39.885Z,16.07
2022-09-02T01:55:05.940Z,16.14
2022-09-02T01:57:32.025Z,16.00
2022-09-02T01:59:58.311Z,16.23
2022-09-02T02:02:24.176Z,16.17
2022-09-02T02:04:50.737Z,16.04
2022-09-02T02:07:18.649Z,15.81
2022-09-02T02:09:44.851Z,16.03
2022-09-02T02:12:10.782Z,15.97
2022-09-02T02:14:36.994Z,15.97
2022-09-02T02:17:03.829Z,15.95
2022-09-02T02:19:29.864Z,15.83
2022-09-02T02:21:57.541Z,15.94
2022-09-02T02:24:24.240Z,15.85
2022-09-02T02:26:50.339Z,15.85
2022-09-02T02:29:16.270Z,16.00
2022-09-02T02:31:42.932Z,15.91
2022-09-02T02:34:09.805Z,15.98
2022-09-02T02:36:37.087Z,15.83
2022-09-02T02:39:04.764Z,15.78
2022-09-02T02:41:31.471Z,15.66
2022-09-02T02:43:57.410Z,15.84
2022-09-02T02:46:23.205Z,15.88
2022-09-02T02:48:49.078Z,15.82
2022-09-02T02:51:15.010Z,15.76
2022-09-02T02:53:40.822Z,15.76
2022-09-02T02:56:07.915Z,15.69
2022-09-02T02:58:33.984Z,15.75
2022-09-02T03:01:00.342Z,15.76
2022-09-02T03:03:27.274Z,15.65
2022-09-02T03:05:53.315Z,15.80
2022-09-02T03:08:21.074Z,15.76
2022-09-02T03:10:50.768Z,15.66
2022-09-02T03:13:17.328Z,15.70
2022-09-02T03:15:43.258Z,15.70
2022-09-02T03:18:09.176Z,15.54
2022-09-02T03:20:35.178Z,15.50
2022-09-02T03:23:01.115Z,15.52
2022-09-02T03:25:32.248Z,15.49
2022-09-02T03:28:02.464Z,15.46
2022-09-02T03:30:29.877Z,15.51
2022-09-02T03:33:03.613Z,15.43
2022-09-02T03:35:30.716Z,15.44
2022-09-02T03:37:57.423Z,15.43
2022-09-02T03:40:26.930Z,15.20
2022-09-02T03:42:56.746Z,15.32
2022-09-02T03:45:25.785Z,15.31
2022-09-02T03:47:53.361Z,15.35
2022-09-02T03:50:33.120Z,15.47
2022-09-02T03:52:59.714Z,15.37
2022-09-02T03:55:26.573Z,15.20
2022-09-02T03:57:52.643Z,15.32
2022-09-02T04:00:23.293Z,15.26
2022-09-02T04:02:50.612Z,15.18
2022-09-02T04:05:16.701Z,15.13
2022-09-02T04:07:43.713Z,15.23
2022-09-02T04:10:13.281Z,15.24
2022-09-02T04:12:39.459Z,15.31
2022-09-02T04:15:07.617Z,15.37
2022-09-02T04:18:29.619Z,15.29
2022-09-02T04:21:09.900Z,15.27
2022-09-02T04:23:36.381Z,15.32
2022-09-02T04:26:12.683Z,15.31
2022-09-02T04:28:39.084Z,15.25
2022-09-02T04:31:10.793Z,15.21
2022-09-02T04:33:37.968Z,15.24
2022-09-02T04:36:07.071Z,15.30
2022-09-02T04:38:34.333Z,15.38
2022-09-02T04:41:01.185Z,15.39
2022-09-02T04:43:27.025Z,15.26
2022-09-02T04:45:52.938Z,15.39
2022-09-02T04:48:19.092Z,15.18
2022-09-02T04:50:45.234Z,15.17
2022-09-02T04:53:11.703Z,15.28
2022-09-02T04:55:39.995Z,15.39
2022-09-02T04:58:05.815Z,15.21
2022-09-02T05:00:32.092Z,15.01
2022-09-02T05:02:58.033Z,15.30
2022-09-02T05:05:23.924Z,15.10
2022-09-02T05:07:49.836Z,15.12
2022-09-02T05:10:15.633Z,15.17
2022-09-02T05:12:43.005Z,15.16
2022-09-02T05:15:11.514Z,15.14
2022-09-02T05:17:37.768Z,15.15
2022-09-02T05:20:05.460Z,15.13
2022-09-02T05:22:32.230Z,15.24
2022-09-02T05:25:04.433Z,15.34
2022-09-02T05:27:30.344Z,15.31
2022-09-02T05:29:58.699Z,15.40
2022-09-02T05:32:26.744Z,15.34
2022-09-02T05:34:53.948Z,15.44
2022-09-02T05:37:20.144Z,15.43
2022-09-02T05:39:46.075Z,15.43
2022-09-02T05:42:11.888Z,15.47
2022-09-02T05:44:38.280Z,15.67
2022-09-02T05:47:04.550Z,15.79
2022-09-02T05:49:30.579Z,15.81
2022-09-02T05:51:58.904Z,15.68
2022-09-02T05:54:28.037Z,15.65
2022-09-02T05:56:58.331Z,15.64
2022-09-02T05:59:26.277Z,15.82
2022-09-02T06:01:53.205Z,15.83
2022-09-02T06:04:21.462Z,15.91
2022-09-02T06:06:50.988Z,15.95
2022-09-02T06:09:20.208Z,16.07
2022-09-02T06:11:48.757Z,16.21
2022-09-02T06:14:21.035Z,16.18
2022-09-02T06:16:49.672Z,16.09
2022-09-02T06:19:19.623Z,16.08
2022-09-02T06:21:46.636Z,16.12
2022-09-02T06:24:12.685Z,16.21
2022-09-02T06:26:39.523Z,16.25
2022-09-02T06:29:06.552Z,16.31
2022-09-02T06:31:34.593Z,16.38
2022-09-02T06:34:01.218Z,16.39
2022-09-02T06:36:30.060Z,16.52
2022-09-02T06:38:58.195Z,16.52
2022-09-02T06:41:28.094Z,16.58
2022-09-02T06:44:00.288Z,16.60
2022-09-02T06:46:35.644Z,16.61
2022-09-02T06:49:02.813Z,16.71
2022-09-02T06:51:31.769Z,16.67
2022-09-02T06:53:58.334Z,16.71
2022-09-02T06:56:25.893Z,16.87
2022-09-02T06:58:52.197Z,16.86
2022-09-02T07:01:23.731Z,16.90
2022-09-02T07:04:08.800Z,16.95
2022-09-02T07:06:37.215Z,16.89
2022-09-02T07:09:05.204Z,17.10
2022-09-02T07:11:32.040Z,17.23
2022-09-02T07:14:00.970Z,17.17
2022-09-02T07:16:29.535Z,17.19
2022-09-02T07:18:56.298Z,17.18
2022-09-02T07:21:22.877Z,17.26
2022-09-02T07:23:48.702Z,17.45
2022-09-02T07:26:16.603Z,17.56
2022-09-02T07:28:43.005Z,17.55
2022-09-02T07:31:10.587Z,17.62
2022-09-02T07:33:36.887Z,17.74
2022-09-02T07:36:05.060Z,17.79
2022-09-02T07:38:37.343Z,17.83
2022-09-02T07:41:04.623Z,17.86
2022-09-02T07:43:31.644Z,17.84
2022-09-02T07:46:00.030Z,17.98
2022-09-02T07:48:27.305Z,18.04
2022-09-02T07:50:53.949Z,18.08
2022-09-02T07:53:20.091Z,18.06
2022-09-02T07:55:46.646Z,18.18
2022-09-02T07:58:16.049Z,18.14
2022-09-02T08:00:42.818Z,18.30
2022-09-02T08:03:10.629Z,18.39
2022-09-02T08:05:39.057Z,18.35
2022-09-02T08:08:06.009Z,18.39
2022-09-02T08:10:32.267Z,18.60
2022-09-02T08:13:02.424Z,18.71
2022-09-02T08:15:30.434Z,18.97
2022-09-02T08:17:56.775Z,18.83
2022-09-02T08:20:23.809Z,18.95
2022-09-02T08:22:55.995Z,19.17
2022-09-02T08:25:35.829Z,19.26
2022-09-02T08:28:02.305Z,19.39
2022-09-02T08:30:28.174Z,19.58
2022-09-02T08:32:54.109Z,19.67
2022-09-02T08:35:20.946Z,19.71
2022-09-02T08:37:46.779Z,19.70
2022-09-02T08:40:16.788Z,19.63
2022-09-02T08:42:51.821Z,19.69
2022-09-02T08:45:29.551Z,19.58
2022-09-02T08:48:07.655Z,19.80
2022-09-02T08:50:36.874Z,19.77
2022-09-02T08:53:29.843Z,19.89
2022-09-02T08:55:58.365Z,19.92
2022-09-02T08:58:28.284Z,20.18
2022-09-02T09:01:09.876Z,20.29
2022-09-02T09:03:50.893Z,20.06
2022-09-02T09:06:34.081Z,20.34
2022-09-02T09:09:22.403Z,20.21
2022-09-02T09:12:07.357Z,20.17
2022-09-02T09:14:47.912Z,20.16
2022-09-02T09:17:13.683Z,20.07
2022-09-02T09:19:47.188Z,20.00
2022-09-02T09:22:17.757Z,20.13
2022-09-02T09:24:49.013Z,20.21
2022-09-02T09:27:20.384Z,20.53
2022-09-02T09:29:48.531Z,20.65
2022-09-02T09:32:36.531Z,21.02
2022-09-02T09:35:06.442Z,21.25
2022-09-02T09:37:38.499Z,21.40
2022-09-02T09:40:26.557Z,21.39
2022-09-02T09:43:07.101Z,21.34
2022-09-02T09:45:46.013Z,21.48
2022-09-02T09:48:29.157Z,21.25
2022-09-02T09:50:54.878Z,21.47
2022-09-02T09:53:21.869Z,21.55
2022-09-02T09:55:54.105Z,21.63
2022-09-02T09:58:22.313Z,21.70
2022-09-02T10:00:48.403Z,21.88
2022-09-02T10:03:22.938Z,21.88
2022-09-02T10:05:53.433Z,22.06
2022-09-02T10:08:22.445Z,22.18
2022-09-02T10:11:06.038Z,22.52
2022-09-02T10:13:33.956Z,22.76
2022-09-02T10:16:08.463Z,22.81
2022-09-02T10:18:52.817Z,22.52
2022-09-02T10:21:32.778Z,22.55
2022-09-02T10:24:13.037Z,22.54
2022-09-02T10:26:52.384Z,22.88
2022-09-02T10:29:55.365Z,23.29
2022-09-02T10:32:46.022Z,23.06
2022-09-02T10:35:28.789Z,22.38
2022-09-02T10:38:16.303Z,21.88
2022-09-02T10:40:57.961Z,21.52
2022-09-02T10:43:56.891Z,21.27
2022-09-02T10:46:25.129Z,21.48
2022-09-02T10:49:20.420Z,21.17
2022-09-02T10:51:53.833Z,20.94
2022-09-02T10:54:57.280Z,21.06
2022-09-02T10:57:32.073Z,21.18
2022-09-02T11:00:26.128Z,21.32
2022-09-02T11:03:12.097Z,21.42
2022-09-02T11:05:49.463Z,21.69
2022-09-02T11:08:36.144Z,21.90
2022-09-02T11:11:10.859Z,22.09
2022-09-02T11:13:52.422Z,22.17
2022-09-02T11:16:20.410Z,22.02
2022-09-02T11:19:01.971Z,21.95
2022-09-02T11:22:04.939Z,21.88
2022-09-02T11:24:37.967Z,21.82
2022-09-02T11:27:42.033Z,22.14
2022-09-02T11:30:17.569Z,22.19
2022-09-02T11:32:46.317Z,22.23
2022-09-02T11:35:41.960Z,22.15
2022-09-02T11:38:42.041Z,21.99
2022-09-02T11:41:37.871Z,21.82
2022-09-02T11:44:15.986Z,21.58
2022-09-02T11:46:54.281Z,21.28
2022-09-02T11:50:01.513Z,21.23
2022-09-02T11:52:52.579Z,21.42
2022-09-02T11:55:40.938Z,21.70
2022-09-02T11:58:07.730Z,21.71
2022-09-02T12:00:38.375Z,22.60
2022-09-02T12:03:11.876Z,23.15
2022-09-02T12:05:43.004Z,22.83
2022-09-02T12:08:35.999Z,22.45
2022-09-02T12:11:06.583Z,21.99
2022-09-02T12:13:44.951Z,22.15
2022-09-02T12:16:18.541Z,21.97
2022-09-02T12:18:52.783Z,21.93
2022-09-02T12:21:23.305Z,21.99
2022-09-02T12:23:55.149Z,22.09
2022-09-02T12:26:50.001Z,21.81
2022-09-02T12:29:23.965Z,21.71
2022-09-02T12:31:52.148Z,21.69
2022-09-02T12:34:24.810Z,21.83
2022-09-02T12:36:54.531Z,22.16
2022-09-02T12:39:29.733Z,22.46
2022-09-02T12:41:55.831Z,22.48
2022-09-02T12:44:28.177Z,22.30
2022-09-02T12:46:57.816Z,21.90
2022-09-02T12:49:38.264Z,21.91
2022-09-02T12:52:07.769Z,22.08
2022-09-02T12:54:49.779Z,22.52
2022-09-02T12:57:17.288Z,22.94
2022-09-02T12:59:45.439Z,23.55
2022-09-02T13:02:41.708Z,23.97
2022-09-02T13:05:29.664Z,23.72
2022-09-02T13:08:47.262Z,23.08
2022-09-02T13:11:40.869Z,23.08
2022-09-02T13:14:13.143Z,23.90
2022-09-02T13:16:55.628Z,24.61
2022-09-02T13:19:34.073Z,25.28
2022-09-02T13:22:08.835Z,25.00
2022-09-02T13:25:00.615Z,24.04
2022-09-02T13:28:06.118Z,23.85
2022-09-02T13:30:54.112Z,24.80
2022-09-02T13:33:20.931Z,24.43
2022-09-02T13:35:53.728Z,23.96
2022-09-02T13:38:24.042Z,24.03
2022-09-02T13:40:51.357Z,24.48
2022-09-02T13:43:20.497Z,24.69
2022-09-02T13:45:48.438Z,24.38
2022-09-02T13:48:25.125Z,23.91
2022-09-02T13:50:53.902Z,23.41
2022-09-02T13:56:24.862Z,23.47
2022-09-02T13:58:57.347Z,23.26
2022-09-02T14:01:28.291Z,23.20
2022-09-02T14:03:57.385Z,23.21
2022-09-02T14:06:32.478Z,23.48
2022-09-02T14:09:01.297Z,24.02
2022-09-02T14:11:29.317Z,24.05
2022-09-02T14:13:56.233Z,24.51
2022-09-02T14:16:26.093Z,24.79
2022-09-02T14:19:07.327Z,24.84
2022-09-02T14:21:35.102Z,24.52
2022-09-02T14:24:01.889Z,24.55
2022-09-02T14:26:34.533Z,24.29
2022-09-02T14:29:11.893Z,24.17
2022-09-02T14:31:37.822Z,24.38
2022-09-02T14:34:05.591Z,24.55
2022-09-02T14:36:37.194Z,24.37
2022-09-02T14:39:16.093Z,24.09
2022-09-02T14:41:44.951Z,23.96
2022-09-02T14:44:17.114Z,23.70
2022-09-02T14:46:52.490Z,23.89
2022-09-02T14:49:31.712Z,24.03
2022-09-02T14:52:05.010Z,24.56
2022-09-02T14:54:51.748Z,24.34
2022-09-02T14:57:22.255Z,24.57
2022-09-02T14:59:49.062Z,24.83
2022-09-02T15:02:26.945Z,24.37
2022-09-02T15:04:57.622Z,24.37
2022-09-02T15:07:25.766Z,24.48
2022-09-02T15:09:51.877Z,24.34
2022-09-02T15:12:31.340Z,24.48
2022-09-02T15:14:57.971Z,24.40
2022-09-02T15:17:24.641Z,24.28
2022-09-02T15:19:50.944Z,24.20
2022-09-02T15:22:17.923Z,23.60
2022-09-02T15:24:43.980Z,23.74
2022-09-02T15:27:10.652Z,23.47
2022-09-02T15:29:36.588Z,23.48
2022-09-02T15:32:03.421Z,23.73
2022-09-02T15:34:33.902Z,23.70
2022-09-02T15:37:00.559Z,23.72
2022-09-02T15:39:27.219Z,23.86
2022-09-02T15:41:54.742Z,24.13
2022-09-02T15:44:28.679Z,24.12
2022-09-02T15:46:55.232Z,23.75
2022-09-02T15:49:22.953Z,23.70
2022-09-02T15:51:49.653Z,23.73
2022-09-02T15:54:18.031Z,24.00
2022-09-02T15:56:46.040Z,23.85
2022-09-02T15:59:19.512Z,23.51
2022-09-02T16:01:51.068Z,23.49
2022-09-02T16:04:17.372Z,23.08
2022-09-02T16:06:47.378Z,22.75
2022-09-02T16:09:15.075Z,22.73
2022-09-02T16:11:47.212Z,22.78
2022-09-02T16:14:14.226Z,22.67
2022-09-02T16:16:41.761Z,22.69
2022-09-02T16:19:09.344Z,22.69
2022-09-02T16:21:38.389Z,23.01
2022-09-02T16:24:05.731Z,23.00
2022-09-02T16:26:34.155Z,22.97
2022-09-02T16:29:03.283Z,23.38
2022-09-02T16:31:30.794Z,23.47
2022-09-02T16:33:59.852Z,23.76
2022-09-02T16:36:31.959Z,23.91
2022-09-02T16:39:00.349Z,24.04
2022-09-02T16:41:34.922Z,23.97
2022-09-02T16:44:24.949Z,24.06
2022-09-02T16:46:51.859Z,23.86
2022-09-02T16:49:19.391Z,23.70
2022-09-02T16:51:47.117Z,23.69
2022-09-02T16:54:17.947Z,23.71
2022-09-02T16:56:48.814Z,23.45
2022-09-02T16:59:14.733Z,23.39
2022-09-02T17:01:40.799Z,23.45
2022-09-02T17:04:08.735Z,23.26
2022-09-02T17:06:39.793Z,23.23
2022-09-02T17:09:08.545Z,23.19
2022-09-02T17:11:37.198Z,22.77
2022-09-02T17:14:05.794Z,22.61
2022-09-02T17:16:37.461Z,22.32
2022-09-02T17:19:04.302Z,22.39
2022-09-02T17:21:40.576Z,22.07
2022-09-02T17:24:08.045Z,21.93
2022-09-02T17:26:38.658Z,21.99
2022-09-02T17:29:37.880Z,21.77
2022-09-02T17:32:02.282Z,21.66
2022-09-02T17:34:28.133Z,21.59
2022-09-02T17:36:53.929Z,21.62
2022-09-02T17:39:20.019Z,21.46
2022-09-02T17:41:56.448Z,21.43
2022-09-02T17:44:26.877Z,21.34
2022-09-02T17:46:57.209Z,21.24
2022-09-02T17:49:23.073Z,21.16
2022-09-02T17:51:49.377Z,21.03
2022-09-02T17:54:15.428Z,21.13
2022-09-02T17:57:02.048Z,21.02
2022-09-02T17:59:39.867Z,21.03
2022-09-02T18:02:14.634Z,20.84
2022-09-02T18:05:01.847Z,20.74
2022-09-02T18:08:00.788Z,20.63
2022-09-02T18:10:39.709Z,20.44
2022-09-02T18:13:09.324Z,20.36
2022-09-02T18:15:58.077Z,20.27
2022-09-02T18:18:24.624Z,20.16
2022-09-02T18:21:08.550Z,20.26
2022-09-02T18:24:10.093Z,20.29
2022-09-02T18:26:35.879Z,20.23
2022-09-02T18:29:05.197Z,20.29
2022-09-02T18:31:48.977Z,20.18
2022-09-02T18:34:36.376Z,20.22
2022-09-02T18:37:15.544Z,20.16
2022-09-02T18:40:12.493Z,20.09
2022-09-02T18:42:59.637Z,20.05
2022-09-02T18:45:38.523Z,20.19
2022-09-02T18:48:13.267Z,20.11
2022-09-02T18:50:52.347Z,20.10
2022-09-02T18:53:22.677Z,20.10
2022-09-02T18:55:51.448Z,20.05
2022-09-02T18:58:33.229Z,19.99
2022-09-02T19:01:38.862Z,19.83
2022-09-02T19:04:04.777Z,19.89
2022-09-02T19:06:35.743Z,19.80
2022-09-02T19:09:06.272Z,19.75
2022-09-02T19:11:34.450Z,19.76
2022-09-02T19:14:17.988Z,19.69
2022-09-02T19:16:44.021Z,19.58
2022-09-02T19:19:09.998Z,19.56
2022-09-02T19:21:40.293Z,19.49
2022-09-02T19:24:11.969Z,19.19
2022-09-02T19:26:42.423Z,19.20
2022-09-02T19:29:12.102Z,19.08
2022-09-02T19:31:40.401Z,18.94
2022-09-02T19:34:07.608Z,18.91
2022-09-02T19:36:38.236Z,18.82
2022-09-02T19:39:04.719Z,18.99
2022-09-02T19:41:30.569Z,19.01
2022-09-02T19:43:56.618Z,18.91
2022-09-02T19:47:04.112Z,18.91
2022-09-02T19:49:09.342Z,18.95
2022-09-02T19:51:35.677Z,18.84
2022-09-02T19:54:02.646Z,18.76
2022-09-02T19:56:28.572Z,18.63
2022-09-02T19:58:54.417Z,18.40
2022-09-02T20:01:20.369Z,18.72
2022-09-02T20:03:46.288Z,18.74
2022-09-02T20:06:12.145Z,18.63
2022-09-02T20:08:37.985Z,18.78
2022-09-02T20:11:05.346Z,18.54
2022-09-02T20:13:40.734Z,18.58
2022-09-02T20:16:19.478Z,18.49
2022-09-02T20:18:47.568Z,18.38
2022-09-02T20:21:20.518Z,18.43
2022-09-02T20:23:47.192Z,18.41
2022-09-02T20:26:23.221Z,18.34
2022-09-02T20:29:02.077Z,18.24
2022-09-02T20:31:30.721Z,18.25
2022-09-02T20:34:26.625Z,18.19
2022-09-02T20:37:23.623Z,18.02
2022-09-02T20:40:10.863Z,18.02
2022-09-02T20:43:03.737Z,18.03
2022-09-02T20:45:32.252Z,18.05
2022-09-02T20:48:10.063Z,17.98
2022-09-02T20:51:03.407Z,18.14
2022-09-02T20:53:45.565Z,18.06
2022-09-02T20:56:28.153Z,18.01
2022-09-02T20:59:03.501Z,17.90
2022-09-02T21:01:33.543Z,17.75
2022-09-02T21:03:59.310Z,17.80
2022-09-02T21:06:31.115Z,17.86
2022-09-02T21:09:05.758Z,17.87
2022-09-02T21:11:42.600Z,17.81
2022-09-02T21:14:14.521Z,17.77
2022-09-02T21:16:58.716Z,17.75
2022-09-02T21:20:18.992Z,17.72
2022-09-02T21:22:49.528Z,17.83
2022-09-02T21:25:40.947Z,17.57
2022-09-02T21:28:26.526Z,17.46
2022-09-02T21:31:01.195Z,17.65
2022-09-02T21:33:31.926Z,17.51
2022-09-02T21:35:59.335Z,17.48
2022-09-02T21:38:36.530Z,17.40
2022-09-02T21:41:38.667Z,17.32
2022-09-02T21:44:21.956Z,17.23
2022-09-02T21:47:25.213Z,17.34
2022-09-02T21:50:07.437Z,17.30
2022-09-02T21:52:56.357Z,17.24
2022-09-02T21:55:44.038Z,17.21
2022-09-02T21:58:21.811Z,17.21
2022-09-02T22:00:58.617Z,17.21
2022-09-02T22:03:39.287Z,17.31
2022-09-02T22:06:35.357Z,17.12
2022-09-02T22:09:04.208Z,17.08
2022-09-02T22:11:42.822Z,16.95
2022-09-02T22:14:15.410Z,17.06
2022-09-02T22:16:45.337Z,17.18
2022-09-02T22:19:12.816Z,16.87
2022-09-02T22:21:50.359Z,16.99
2022-09-02T22:24:20.878Z,16.94
2022-09-02T22:26:57.955Z,16.96
2022-09-02T22:29:37.015Z,16.86
2022-09-02T22:32:07.355Z,16.90
2022-09-02T22:34:42.912Z,16.86
2022-09-02T22:37:16.413Z,16.96
2022-09-02T22:39:55.711Z,16.88
2022-09-02T22:42:34.087Z,16.66
2022-09-02T22:45:30.772Z,16.75
2022-09-02T22:48:26.773Z,16.68
2022-09-02T22:51:19.245Z,16.67
2022-09-02T22:53:47.313Z,16.63
2022-09-02T22:56:21.892Z,16.64
2022-09-02T22:59:16.150Z,16.79
2022-09-02T23:01:54.689Z,16.57
2022-09-02T23:04:29.248Z,16.62
2022-09-02T23:06:57.473Z,16.66
2022-09-02T23:09:23.368Z,16.57
2022-09-02T23:12:25.357Z,16.51
2022-09-02T23:15:37.647Z,16.40
2022-09-02T23:18:41.663Z,16.40
2022-09-02T23:21:39.868Z,16.30
2022-09-02T23:24:32.255Z,16.30
2022-09-02T23:27:29.532Z,16.38
2022-09-02T23:29:55.392Z,16.28
2022-09-02T23:32:51.354Z,16.30
2022-09-02T23:35:17.236Z,16.30
2022-09-02T23:38:04.781Z,16.24
2022-09-02T23:40:39.756Z,16.30
2022-09-02T23:43:05.972Z,16.25
2022-09-02T23:45:33.117Z,16.17
2022-09-02T23:48:10.737Z,16.16
2022-09-02T23:50:57.351Z,16.12
2022-09-02T23:53:36.759Z,16.35
2022-09-02T23:56:17.710Z,16.27
2022-09-02T23:58:59.018Z,16.31
